sensor_id;sensor_type;location;lat;lon;timestamp;P1;durP1;ratioP1;P2;durP2;ratioP2
41861;SDS011;27537;57.134;-2.136;2023-07-30T00:00:26;5.63;;;1.50;;
41861;SDS011;27537;57.134;-2.136;2023-07-30T00:02:53;7.18;;;1.80;;
41861;SDS011;27537;57.134;-2.136;2023-07-30T00:05:20;4.45;;;1.15;;
41861;SDS011;27537;57.134;-2.136;2023-07-30T00:07:46;7.97;;;1.30;;
41861;SDS011;27537;57.134;-2.136;2023-07-30T00:10:13;5.60;;;1.55;;
41861;SDS011;27537;57.134;-2.136;2023-07-30T00:12:40;6.95;;;1.88;;
41861;SDS011;27537;57.134;-2.136;2023-07-30T00:15:07;4.78;;;1.10;;
41861;SDS011;27537;57.134;-2.136;2023-07-30T00:17:34;5.93;;;1.58;;
41861;SDS011;27537;57.134;-2.136;2023-07-30T00:20:01;9.77;;;1.92;;
41861;SDS011;27537;57.134;-2.136;2023-07-30T00:22:27;5.75;;;1.40;;
41861;SDS011;27537;57.134;-2.136;2023-07-30T00:24:54;6.82;;;1.60;;
41861;SDS011;27537;57.134;-2.136;2023-07-30T00:27:21;8.32;;;1.75;;
41861;SDS011;27537;57.134;-2.136;2023-07-30T00:29:49;5.57;;;1.40;;
41861;SDS011;27537;57.134;-2.136;2023-07-30T00:32:15;7.95;;;1.38;;
41861;SDS011;27537;57.134;-2.136;2023-07-30T00:34:43;8.15;;;1.50;;
41861;SDS011;27537;57.134;-2.136;2023-07-30T00:37:10;6.20;;;1.48;;
41861;SDS011;27537;57.134;-2.136;2023-07-30T00:39:36;9.05;;;1.50;;
41861;SDS011;27537;57.134;-2.136;2023-07-30T00:42:03;7.40;;;1.60;;
41861;SDS011;27537;57.134;-2.136;2023-07-30T00:44:30;7.90;;;1.55;;
41861;SDS011;27537;57.134;-2.136;2023-07-30T00:46:57;5.82;;;1.50;;
41861;SDS011;27537;57.134;-2.136;2023-07-30T00:49:24;6.32;;;1.52;;
41861;SDS011;27537;57.134;-2.136;2023-07-30T00:51:51;6.05;;;1.30;;
41861;SDS011;27537;57.134;-2.136;2023-07-30T00:54:18;5.85;;;1.27;;
41861;SDS011;27537;57.134;-2.136;2023-07-30T00:56:51;4.25;;;1.10;;
41861;SDS011;27537;57.134;-2.136;2023-07-30T00:59:20;6.13;;;1.40;;
41861;SDS011;27537;57.134;-2.136;2023-07-30T01:01:47;7.25;;;1.40;;
41861;SDS011;27537;57.134;-2.136;2023-07-30T01:04:16;6.90;;;1.55;;
41861;SDS011;27537;57.134;-2.136;2023-07-30T01:06:43;4.28;;;1.30;;
41861;SDS011;27537;57.134;-2.136;2023-07-30T01:09:10;4.75;;;1.48;;
41861;SDS011;27537;57.134;-2.136;2023-07-30T01:11:37;6.55;;;1.77;;
41861;SDS011;27537;57.134;-2.136;2023-07-30T01:14:06;10.02;;;1.75;;
41861;SDS011;27537;57.134;-2.136;2023-07-30T01:16:35;8.13;;;1.70;;
41861;SDS011;27537;57.134;-2.136;2023-07-30T01:19:02;6.10;;;1.38;;
41861;SDS011;27537;57.134;-2.136;2023-07-30T01:21:35;5.80;;;1.38;;
41861;SDS011;27537;57.134;-2.136;2023-07-30T01:24:03;5.18;;;1.50;;
41861;SDS011;27537;57.134;-2.136;2023-07-30T01:26:32;5.70;;;1.50;;
41861;SDS011;27537;57.134;-2.136;2023-07-30T01:29:04;5.63;;;1.40;;
41861;SDS011;27537;57.134;-2.136;2023-07-30T01:31:36;6.05;;;1.45;;
41861;SDS011;27537;57.134;-2.136;2023-07-30T01:34:06;7.97;;;1.63;;
41861;SDS011;27537;57.134;-2.136;2023-07-30T01:36:35;6.00;;;1.52;;
41861;SDS011;27537;57.134;-2.136;2023-07-30T01:39:04;7.10;;;1.58;;
41861;SDS011;27537;57.134;-2.136;2023-07-30T01:41:32;6.03;;;1.33;;
41861;SDS011;27537;57.134;-2.136;2023-07-30T01:43:59;7.38;;;1.55;;
41861;SDS011;27537;57.134;-2.136;2023-07-30T01:46:25;5.43;;;1.35;;
41861;SDS011;27537;57.134;-2.136;2023-07-30T01:48:52;6.25;;;1.50;;
41861;SDS011;27537;57.134;-2.136;2023-07-30T01:51:18;8.35;;;1.60;;
41861;SDS011;27537;57.134;-2.136;2023-07-30T01:53:45;7.60;;;1.75;;
41861;SDS011;27537;57.134;-2.136;2023-07-30T01:56:12;8.70;;;1.70;;
41861;SDS011;27537;57.134;-2.136;2023-07-30T01:58:39;8.57;;;1.95;;
41861;SDS011;27537;57.134;-2.136;2023-07-30T02:01:05;6.20;;;1.95;;
41861;SDS011;27537;57.134;-2.136;2023-07-30T02:03:32;7.32;;;1.45;;
41861;SDS011;27537;57.134;-2.136;2023-07-30T02:05:59;7.45;;;1.67;;
41861;SDS011;27537;57.134;-2.136;2023-07-30T02:08:25;5.32;;;1.88;;
41861;SDS011;27537;57.134;-2.136;2023-07-30T02:10:58;6.85;;;2.00;;
41861;SDS011;27537;57.134;-2.136;2023-07-30T02:15:52;5.95;;;1.80;;
41861;SDS011;27537;57.134;-2.136;2023-07-30T02:18:19;9.07;;;2.08;;
41861;SDS011;27537;57.134;-2.136;2023-07-30T02:20:45;6.63;;;1.80;;
41861;SDS011;27537;57.134;-2.136;2023-07-30T02:23:13;8.02;;;1.67;;
41861;SDS011;27537;57.134;-2.136;2023-07-30T02:25:41;6.20;;;1.73;;
41861;SDS011;27537;57.134;-2.136;2023-07-30T02:28:09;7.80;;;2.00;;
41861;SDS011;27537;57.134;-2.136;2023-07-30T02:30:38;7.43;;;1.85;;
41861;SDS011;27537;57.134;-2.136;2023-07-30T02:33:05;8.98;;;1.80;;
41861;SDS011;27537;57.134;-2.136;2023-07-30T02:35:31;8.98;;;2.08;;
41861;SDS011;27537;57.134;-2.136;2023-07-30T02:37:58;10.80;;;2.22;;
41861;SDS011;27537;57.134;-2.136;2023-07-30T02:40:25;10.00;;;1.90;;
41861;SDS011;27537;57.134;-2.136;2023-07-30T02:42:51;7.32;;;1.73;;
41861;SDS011;27537;57.134;-2.136;2023-07-30T02:45:18;8.57;;;1.70;;
41861;SDS011;27537;57.134;-2.136;2023-07-30T02:47:45;8.23;;;1.67;;
41861;SDS011;27537;57.134;-2.136;2023-07-30T02:50:11;8.57;;;1.98;;
41861;SDS011;27537;57.134;-2.136;2023-07-30T02:52:38;7.00;;;2.03;;
41861;SDS011;27537;57.134;-2.136;2023-07-30T02:55:05;7.25;;;1.70;;
41861;SDS011;27537;57.134;-2.136;2023-07-30T02:57:31;7.40;;;1.77;;
41861;SDS011;27537;57.134;-2.136;2023-07-30T02:59:58;5.60;;;1.35;;
41861;SDS011;27537;57.134;-2.136;2023-07-30T03:02:25;8.82;;;1.70;;
41861;SDS011;27537;57.134;-2.136;2023-07-30T03:04:52;6.95;;;1.55;;
41861;SDS011;27537;57.134;-2.136;2023-07-30T03:07:22;7.03;;;1.65;;
41861;SDS011;27537;57.134;-2.136;2023-07-30T03:09:49;8.20;;;1.63;;
41861;SDS011;27537;57.134;-2.136;2023-07-30T03:12:15;8.00;;;2.22;;
41861;SDS011;27537;57.134;-2.136;2023-07-30T03:14:42;5.80;;;1.58;;
41861;SDS011;27537;57.134;-2.136;2023-07-30T03:17:09;4.72;;;1.40;;
41861;SDS011;27537;57.134;-2.136;2023-07-30T03:19:35;9.57;;;1.60;;
41861;SDS011;27537;57.134;-2.136;2023-07-30T03:22:02;7.55;;;1.58;;
41861;SDS011;27537;57.134;-2.136;2023-07-30T03:24:29;7.82;;;1.90;;
41861;SDS011;27537;57.134;-2.136;2023-07-30T03:26:55;9.88;;;2.60;;
41861;SDS011;27537;57.134;-2.136;2023-07-30T03:29:22;6.90;;;1.83;;
41861;SDS011;27537;57.134;-2.136;2023-07-30T03:31:48;8.05;;;2.10;;
41861;SDS011;27537;57.134;-2.136;2023-07-30T03:34:15;9.02;;;1.73;;
41861;SDS011;27537;57.134;-2.136;2023-07-30T03:36:42;9.15;;;1.60;;
41861;SDS011;27537;57.134;-2.136;2023-07-30T03:39:08;9.32;;;1.85;;
41861;SDS011;27537;57.134;-2.136;2023-07-30T03:41:35;11.68;;;2.05;;
41861;SDS011;27537;57.134;-2.136;2023-07-30T03:44:02;5.32;;;1.50;;
41861;SDS011;27537;57.134;-2.136;2023-07-30T03:46:29;6.45;;;1.90;;
41861;SDS011;27537;57.134;-2.136;2023-07-30T03:48:55;8.88;;;2.20;;
41861;SDS011;27537;57.134;-2.136;2023-07-30T03:51:22;7.68;;;1.65;;
41861;SDS011;27537;57.134;-2.136;2023-07-30T03:53:49;9.75;;;1.98;;
41861;SDS011;27537;57.134;-2.136;2023-07-30T03:56:15;8.27;;;1.52;;
41861;SDS011;27537;57.134;-2.136;2023-07-30T03:58:42;5.22;;;1.42;;
41861;SDS011;27537;57.134;-2.136;2023-07-30T04:01:08;4.38;;;1.25;;
41861;SDS011;27537;57.134;-2.136;2023-07-30T04:03:35;5.65;;;1.40;;
41861;SDS011;27537;57.134;-2.136;2023-07-30T04:06:02;6.63;;;1.45;;
41861;SDS011;27537;57.134;-2.136;2023-07-30T04:08:29;9.43;;;1.80;;
41861;SDS011;27537;57.134;-2.136;2023-07-30T04:10:55;5.47;;;1.65;;
41861;SDS011;27537;57.134;-2.136;2023-07-30T04:13:22;6.88;;;1.92;;
41861;SDS011;27537;57.134;-2.136;2023-07-30T04:15:49;6.30;;;1.40;;
41861;SDS011;27537;57.134;-2.136;2023-07-30T04:18:15;7.63;;;1.60;;
41861;SDS011;27537;57.134;-2.136;2023-07-30T04:20:42;6.75;;;1.58;;
41861;SDS011;27537;57.134;-2.136;2023-07-30T04:23:09;9.07;;;1.65;;
41861;SDS011;27537;57.134;-2.136;2023-07-30T04:25:35;5.45;;;1.50;;
41861;SDS011;27537;57.134;-2.136;2023-07-30T04:28:02;6.70;;;1.73;;
41861;SDS011;27537;57.134;-2.136;2023-07-30T04:30:29;8.02;;;1.60;;
41861;SDS011;27537;57.134;-2.136;2023-07-30T04:32:55;6.72;;;1.88;;
41861;SDS011;27537;57.134;-2.136;2023-07-30T04:35:22;4.47;;;1.35;;
41861;SDS011;27537;57.134;-2.136;2023-07-30T04:37:49;6.90;;;1.40;;
41861;SDS011;27537;57.134;-2.136;2023-07-30T04:40:15;9.43;;;1.58;;
41861;SDS011;27537;57.134;-2.136;2023-07-30T04:42:42;6.18;;;1.33;;
41861;SDS011;27537;57.134;-2.136;2023-07-30T04:45:09;7.50;;;1.98;;
41861;SDS011;27537;57.134;-2.136;2023-07-30T04:47:35;7.88;;;1.80;;
41861;SDS011;27537;57.134;-2.136;2023-07-30T04:50:02;8.73;;;2.05;;
41861;SDS011;27537;57.134;-2.136;2023-07-30T04:52:29;8.65;;;1.50;;
41861;SDS011;27537;57.134;-2.136;2023-07-30T04:54:56;6.53;;;1.60;;
41861;SDS011;27537;57.134;-2.136;2023-07-30T04:57:22;8.30;;;2.22;;
41861;SDS011;27537;57.134;-2.136;2023-07-30T04:59:49;8.43;;;1.75;;
41861;SDS011;27537;57.134;-2.136;2023-07-30T05:02:16;5.45;;;1.77;;
41861;SDS011;27537;57.134;-2.136;2023-07-30T05:04:42;8.10;;;1.80;;
41861;SDS011;27537;57.134;-2.136;2023-07-30T05:07:09;7.45;;;1.98;;
41861;SDS011;27537;57.134;-2.136;2023-07-30T05:09:36;5.78;;;1.83;;
41861;SDS011;27537;57.134;-2.136;2023-07-30T05:12:02;4.95;;;1.42;;
41861;SDS011;27537;57.134;-2.136;2023-07-30T05:14:29;6.38;;;1.67;;
41861;SDS011;27537;57.134;-2.136;2023-07-30T05:16:56;9.93;;;2.15;;
41861;SDS011;27537;57.134;-2.136;2023-07-30T05:19:23;6.30;;;1.58;;
41861;SDS011;27537;57.134;-2.136;2023-07-30T05:21:49;9.23;;;1.90;;
41861;SDS011;27537;57.134;-2.136;2023-07-30T05:24:16;9.65;;;2.28;;
41861;SDS011;27537;57.134;-2.136;2023-07-30T05:26:42;7.60;;;1.90;;
41861;SDS011;27537;57.134;-2.136;2023-07-30T05:29:09;4.70;;;1.60;;
41861;SDS011;27537;57.134;-2.136;2023-07-30T05:31:37;7.15;;;2.00;;
41861;SDS011;27537;57.134;-2.136;2023-07-30T05:34:04;8.20;;;2.17;;
41861;SDS011;27537;57.134;-2.136;2023-07-30T05:36:31;8.35;;;1.80;;
41861;SDS011;27537;57.134;-2.136;2023-07-30T05:38:58;6.88;;;2.00;;
41861;SDS011;27537;57.134;-2.136;2023-07-30T05:41:24;6.07;;;1.52;;
41861;SDS011;27537;57.134;-2.136;2023-07-30T05:43:51;8.98;;;2.10;;
41861;SDS011;27537;57.134;-2.136;2023-07-30T05:46:17;10.27;;;2.35;;
41861;SDS011;27537;57.134;-2.136;2023-07-30T05:48:44;10.50;;;2.20;;
41861;SDS011;27537;57.134;-2.136;2023-07-30T05:51:11;6.00;;;2.03;;
41861;SDS011;27537;57.134;-2.136;2023-07-30T05:53:38;7.53;;;2.15;;
41861;SDS011;27537;57.134;-2.136;2023-07-30T05:56:04;10.50;;;2.47;;
41861;SDS011;27537;57.134;-2.136;2023-07-30T05:58:31;7.90;;;2.20;;
41861;SDS011;27537;57.134;-2.136;2023-07-30T06:00:57;6.55;;;2.28;;
41861;SDS011;27537;57.134;-2.136;2023-07-30T06:03:24;8.20;;;2.53;;
41861;SDS011;27537;57.134;-2.136;2023-07-30T06:05:51;8.60;;;2.42;;
41861;SDS011;27537;57.134;-2.136;2023-07-30T06:08:18;8.23;;;2.30;;
41861;SDS011;27537;57.134;-2.136;2023-07-30T06:10:44;6.70;;;2.22;;
41861;SDS011;27537;57.134;-2.136;2023-07-30T06:13:12;10.00;;;2.75;;
41861;SDS011;27537;57.134;-2.136;2023-07-30T06:15:39;10.07;;;2.53;;
41861;SDS011;27537;57.134;-2.136;2023-07-30T06:18:06;7.85;;;2.20;;
41861;SDS011;27537;57.134;-2.136;2023-07-30T06:20:32;7.20;;;1.70;;
41861;SDS011;27537;57.134;-2.136;2023-07-30T06:22:59;6.28;;;1.70;;
41861;SDS011;27537;57.134;-2.136;2023-07-30T06:25:26;4.45;;;1.48;;
41861;SDS011;27537;57.134;-2.136;2023-07-30T06:27:52;7.50;;;1.65;;
41861;SDS011;27537;57.134;-2.136;2023-07-30T06:30:20;6.15;;;1.90;;
41861;SDS011;27537;57.134;-2.136;2023-07-30T06:32:47;14.30;;;2.17;;
41861;SDS011;27537;57.134;-2.136;2023-07-30T06:35:13;12.93;;;2.70;;
41861;SDS011;27537;57.134;-2.136;2023-07-30T06:37:40;8.05;;;1.70;;
41861;SDS011;27537;57.134;-2.136;2023-07-30T06:40:07;9.70;;;1.98;;
41861;SDS011;27537;57.134;-2.136;2023-07-30T06:42:34;7.20;;;1.88;;
41861;SDS011;27537;57.134;-2.136;2023-07-30T06:45:00;6.70;;;1.85;;
41861;SDS011;27537;57.134;-2.136;2023-07-30T06:47:27;6.90;;;1.70;;
41861;SDS011;27537;57.134;-2.136;2023-07-30T06:49:54;5.97;;;1.65;;
41861;SDS011;27537;57.134;-2.136;2023-07-30T06:52:21;8.50;;;1.83;;
41861;SDS011;27537;57.134;-2.136;2023-07-30T06:54:47;5.15;;;1.35;;
41861;SDS011;27537;57.134;-2.136;2023-07-30T06:57:14;7.25;;;2.05;;
41861;SDS011;27537;57.134;-2.136;2023-07-30T06:59:40;10.27;;;2.05;;
41861;SDS011;27537;57.134;-2.136;2023-07-30T07:02:07;7.22;;;1.45;;
41861;SDS011;27537;57.134;-2.136;2023-07-30T07:04:34;5.20;;;1.33;;
41861;SDS011;27537;57.134;-2.136;2023-07-30T07:07:00;6.22;;;1.52;;
41861;SDS011;27537;57.134;-2.136;2023-07-30T07:09:29;6.82;;;1.65;;
41861;SDS011;27537;57.134;-2.136;2023-07-30T07:11:56;5.68;;;1.75;;
41861;SDS011;27537;57.134;-2.136;2023-07-30T07:14:24;7.85;;;2.00;;
41861;SDS011;27537;57.134;-2.136;2023-07-30T07:16:51;8.88;;;1.73;;
41861;SDS011;27537;57.134;-2.136;2023-07-30T07:19:18;6.00;;;1.67;;
41861;SDS011;27537;57.134;-2.136;2023-07-30T07:21:45;8.23;;;1.77;;
41861;SDS011;27537;57.134;-2.136;2023-07-30T07:24:12;8.30;;;2.10;;
41861;SDS011;27537;57.134;-2.136;2023-07-30T07:26:38;7.35;;;1.88;;
41861;SDS011;27537;57.134;-2.136;2023-07-30T07:29:05;5.38;;;1.50;;
41861;SDS011;27537;57.134;-2.136;2023-07-30T07:31:32;9.70;;;1.98;;
41861;SDS011;27537;57.134;-2.136;2023-07-30T07:34:01;7.80;;;1.58;;
41861;SDS011;27537;57.134;-2.136;2023-07-30T07:36:28;5.95;;;1.25;;
41861;SDS011;27537;57.134;-2.136;2023-07-30T07:38:54;8.82;;;1.48;;
41861;SDS011;27537;57.134;-2.136;2023-07-30T07:41:21;7.40;;;1.67;;
41861;SDS011;27537;57.134;-2.136;2023-07-30T07:43:47;4.20;;;1.42;;
41861;SDS011;27537;57.134;-2.136;2023-07-30T07:46:14;6.13;;;1.30;;
41861;SDS011;27537;57.134;-2.136;2023-07-30T07:48:41;6.57;;;1.35;;
41861;SDS011;27537;57.134;-2.136;2023-07-30T07:51:09;3.75;;;1.20;;
41861;SDS011;27537;57.134;-2.136;2023-07-30T07:53:37;6.63;;;1.55;;
41861;SDS011;27537;57.134;-2.136;2023-07-30T07:56:04;6.63;;;1.42;;
41861;SDS011;27537;57.134;-2.136;2023-07-30T07:58:31;6.20;;;1.35;;
41861;SDS011;27537;57.134;-2.136;2023-07-30T08:00:58;5.93;;;1.40;;
41861;SDS011;27537;57.134;-2.136;2023-07-30T08:03:26;6.00;;;1.80;;
41861;SDS011;27537;57.134;-2.136;2023-07-30T08:05:53;5.60;;;1.42;;
41861;SDS011;27537;57.134;-2.136;2023-07-30T08:08:20;5.63;;;1.63;;
41861;SDS011;27537;57.134;-2.136;2023-07-30T08:10:48;4.25;;;1.10;;
41861;SDS011;27537;57.134;-2.136;2023-07-30T08:13:14;4.15;;;1.10;;
41861;SDS011;27537;57.134;-2.136;2023-07-30T08:15:41;6.07;;;1.30;;
41861;SDS011;27537;57.134;-2.136;2023-07-30T08:18:08;3.60;;;1.15;;
41861;SDS011;27537;57.134;-2.136;2023-07-30T08:20:35;5.13;;;1.17;;
41861;SDS011;27537;57.134;-2.136;2023-07-30T08:23:02;4.32;;;1.17;;
41861;SDS011;27537;57.134;-2.136;2023-07-30T08:25:29;4.60;;;1.30;;
41861;SDS011;27537;57.134;-2.136;2023-07-30T08:27:56;3.30;;;1.10;;
41861;SDS011;27537;57.134;-2.136;2023-07-30T08:30:22;3.40;;;1.00;;
41861;SDS011;27537;57.134;-2.136;2023-07-30T08:32:49;5.05;;;1.10;;
41861;SDS011;27537;57.134;-2.136;2023-07-30T08:35:16;2.13;;;0.75;;
41861;SDS011;27537;57.134;-2.136;2023-07-30T08:37:42;3.25;;;1.17;;
41861;SDS011;27537;57.134;-2.136;2023-07-30T08:40:09;4.00;;;1.05;;
41861;SDS011;27537;57.134;-2.136;2023-07-30T08:42:36;6.00;;;1.45;;
41861;SDS011;27537;57.134;-2.136;2023-07-30T08:45:06;4.47;;;1.13;;
41861;SDS011;27537;57.134;-2.136;2023-07-30T08:47:37;3.05;;;1.00;;
41861;SDS011;27537;57.134;-2.136;2023-07-30T08:50:06;4.00;;;1.10;;
41861;SDS011;27537;57.134;-2.136;2023-07-30T08:52:33;2.88;;;0.85;;
41861;SDS011;27537;57.134;-2.136;2023-07-30T08:55:05;2.78;;;0.77;;
41861;SDS011;27537;57.134;-2.136;2023-07-30T08:57:33;4.80;;;1.00;;
41861;SDS011;27537;57.134;-2.136;2023-07-30T09:00:04;2.83;;;0.85;;
41861;SDS011;27537;57.134;-2.136;2023-07-30T09:05:06;2.85;;;0.80;;
41861;SDS011;27537;57.134;-2.136;2023-07-30T09:07:33;4.68;;;0.90;;
41861;SDS011;27537;57.134;-2.136;2023-07-30T09:09:59;2.75;;;0.80;;
41861;SDS011;27537;57.134;-2.136;2023-07-30T09:12:29;3.42;;;0.93;;
41861;SDS011;27537;57.134;-2.136;2023-07-30T09:14:57;2.58;;;0.70;;
41861;SDS011;27537;57.134;-2.136;2023-07-30T09:17:24;7.20;;;1.08;;
41861;SDS011;27537;57.134;-2.136;2023-07-30T09:19:55;2.17;;;0.82;;
41861;SDS011;27537;57.134;-2.136;2023-07-30T09:22:26;4.97;;;1.20;;
41861;SDS011;27537;57.134;-2.136;2023-07-30T09:24:55;3.65;;;1.10;;
41861;SDS011;27537;57.134;-2.136;2023-07-30T09:27:24;2.55;;;0.95;;
41861;SDS011;27537;57.134;-2.136;2023-07-30T09:29:53;2.13;;;0.70;;
41861;SDS011;27537;57.134;-2.136;2023-07-30T09:34:55;1.40;;;0.63;;
41861;SDS011;27537;57.134;-2.136;2023-07-30T09:37:35;1.70;;;0.60;;
41861;SDS011;27537;57.134;-2.136;2023-07-30T09:40:05;3.10;;;0.87;;
41861;SDS011;27537;57.134;-2.136;2023-07-30T09:42:43;1.70;;;0.65;;
41861;SDS011;27537;57.134;-2.136;2023-07-30T09:45:22;1.42;;;0.60;;
41861;SDS011;27537;57.134;-2.136;2023-07-30T09:47:51;5.03;;;0.80;;
41861;SDS011;27537;57.134;-2.136;2023-07-30T09:50:19;5.47;;;1.20;;
41861;SDS011;27537;57.134;-2.136;2023-07-30T09:52:45;4.35;;;1.00;;
41861;SDS011;27537;57.134;-2.136;2023-07-30T09:55:12;4.03;;;1.00;;
41861;SDS011;27537;57.134;-2.136;2023-07-30T09:57:39;3.72;;;1.10;;
41861;SDS011;27537;57.134;-2.136;2023-07-30T10:00:06;4.60;;;1.00;;
41861;SDS011;27537;57.134;-2.136;2023-07-30T10:02:37;4.70;;;1.20;;
41861;SDS011;27537;57.134;-2.136;2023-07-30T10:05:07;3.97;;;1.00;;
41861;SDS011;27537;57.134;-2.136;2023-07-30T10:07:38;3.13;;;0.85;;
41861;SDS011;27537;57.134;-2.136;2023-07-30T10:10:08;3.38;;;0.82;;
41861;SDS011;27537;57.134;-2.136;2023-07-30T10:12:37;2.72;;;0.80;;
41861;SDS011;27537;57.134;-2.136;2023-07-30T10:15:06;3.67;;;1.00;;
41861;SDS011;27537;57.134;-2.136;2023-07-30T10:17:34;5.07;;;1.17;;
41861;SDS011;27537;57.134;-2.136;2023-07-30T10:20:20;5.75;;;1.00;;
41861;SDS011;27537;57.134;-2.136;2023-07-30T10:22:51;5.68;;;1.10;;
41861;SDS011;27537;57.134;-2.136;2023-07-30T10:25:25;3.88;;;1.10;;
41861;SDS011;27537;57.134;-2.136;2023-07-30T10:30:55;4.00;;;1.10;;
41861;SDS011;27537;57.134;-2.136;2023-07-30T10:33:23;3.47;;;0.77;;
41861;SDS011;27537;57.134;-2.136;2023-07-30T10:35:52;2.67;;;0.90;;
41861;SDS011;27537;57.134;-2.136;2023-07-30T10:38:22;3.63;;;0.98;;
41861;SDS011;27537;57.134;-2.136;2023-07-30T10:43:30;2.15;;;0.93;;
41861;SDS011;27537;57.134;-2.136;2023-07-30T10:46:05;2.90;;;0.90;;
41861;SDS011;27537;57.134;-2.136;2023-07-30T10:48:36;4.07;;;1.00;;
41861;SDS011;27537;57.134;-2.136;2023-07-30T10:51:08;4.20;;;0.98;;
41861;SDS011;27537;57.134;-2.136;2023-07-30T10:53:36;2.45;;;0.85;;
41861;SDS011;27537;57.134;-2.136;2023-07-30T10:56:03;3.55;;;0.90;;
41861;SDS011;27537;57.134;-2.136;2023-07-30T10:58:31;2.67;;;0.88;;
41861;SDS011;27537;57.134;-2.136;2023-07-30T11:00:58;2.13;;;0.90;;
41861;SDS011;27537;57.134;-2.136;2023-07-30T11:03:26;5.32;;;1.10;;
41861;SDS011;27537;57.134;-2.136;2023-07-30T11:05:55;6.70;;;1.38;;
41861;SDS011;27537;57.134;-2.136;2023-07-30T11:08:31;2.13;;;0.80;;
41861;SDS011;27537;57.134;-2.136;2023-07-30T11:11:01;2.63;;;0.80;;
41861;SDS011;27537;57.134;-2.136;2023-07-30T11:13:28;6.32;;;1.33;;
41861;SDS011;27537;57.134;-2.136;2023-07-30T11:15:55;3.97;;;1.13;;
41861;SDS011;27537;57.134;-2.136;2023-07-30T11:18:22;7.03;;;1.20;;
41861;SDS011;27537;57.134;-2.136;2023-07-30T11:20:49;3.55;;;1.20;;
41861;SDS011;27537;57.134;-2.136;2023-07-30T11:23:20;3.47;;;0.85;;
41861;SDS011;27537;57.134;-2.136;2023-07-30T11:25:48;3.42;;;1.00;;
41861;SDS011;27537;57.134;-2.136;2023-07-30T11:28:29;2.55;;;0.73;;
41861;SDS011;27537;57.134;-2.136;2023-07-30T11:31:07;3.20;;;0.85;;
41861;SDS011;27537;57.134;-2.136;2023-07-30T11:33:45;2.17;;;0.77;;
41861;SDS011;27537;57.134;-2.136;2023-07-30T11:36:27;4.40;;;1.08;;
41861;SDS011;27537;57.134;-2.136;2023-07-30T11:38:56;7.82;;;1.23;;
41861;SDS011;27537;57.134;-2.136;2023-07-30T11:41:23;2.92;;;0.90;;
41861;SDS011;27537;57.134;-2.136;2023-07-30T11:43:51;4.60;;;0.90;;
41861;SDS011;27537;57.134;-2.136;2023-07-30T11:46:18;3.92;;;1.00;;
41861;SDS011;27537;57.134;-2.136;2023-07-30T11:48:52;6.95;;;1.20;;
41861;SDS011;27537;57.134;-2.136;2023-07-30T11:51:36;3.90;;;0.93;;
41861;SDS011;27537;57.134;-2.136;2023-07-30T11:54:03;4.22;;;1.00;;
41861;SDS011;27537;57.134;-2.136;2023-07-30T11:56:31;6.88;;;1.67;;
41861;SDS011;27537;57.134;-2.136;2023-07-30T11:59:04;4.65;;;0.98;;
41861;SDS011;27537;57.134;-2.136;2023-07-30T12:01:32;3.33;;;0.93;;
41861;SDS011;27537;57.134;-2.136;2023-07-30T12:04:05;4.15;;;0.90;;
41861;SDS011;27537;57.134;-2.136;2023-07-30T12:09:22;7.95;;;1.52;;
41861;SDS011;27537;57.134;-2.136;2023-07-30T12:14:21;4.30;;;1.00;;
41861;SDS011;27537;57.134;-2.136;2023-07-30T12:16:51;5.32;;;1.00;;
41861;SDS011;27537;57.134;-2.136;2023-07-30T12:19:18;3.90;;;1.10;;
41861;SDS011;27537;57.134;-2.136;2023-07-30T12:21:45;4.30;;;1.27;;
41861;SDS011;27537;57.134;-2.136;2023-07-30T12:24:12;4.60;;;1.10;;
41861;SDS011;27537;57.134;-2.136;2023-07-30T12:26:38;3.58;;;0.98;;
41861;SDS011;27537;57.134;-2.136;2023-07-30T12:29:05;5.03;;;1.10;;
41861;SDS011;27537;57.134;-2.136;2023-07-30T12:31:32;4.45;;;1.10;;
41861;SDS011;27537;57.134;-2.136;2023-07-30T12:33:58;5.15;;;1.10;;
41861;SDS011;27537;57.134;-2.136;2023-07-30T12:36:25;5.50;;;1.30;;
41861;SDS011;27537;57.134;-2.136;2023-07-30T12:38:52;4.38;;;1.25;;
41861;SDS011;27537;57.134;-2.136;2023-07-30T12:41:20;6.57;;;1.10;;
41861;SDS011;27537;57.134;-2.136;2023-07-30T12:43:53;5.13;;;1.20;;
41861;SDS011;27537;57.134;-2.136;2023-07-30T12:46:20;6.05;;;1.20;;
41861;SDS011;27537;57.134;-2.136;2023-07-30T12:48:47;4.75;;;1.10;;
41861;SDS011;27537;57.134;-2.136;2023-07-30T12:51:13;5.80;;;1.05;;
41861;SDS011;27537;57.134;-2.136;2023-07-30T12:53:40;4.43;;;0.95;;
41861;SDS011;27537;57.134;-2.136;2023-07-30T12:56:07;4.47;;;1.08;;
41861;SDS011;27537;57.134;-2.136;2023-07-30T12:58:34;4.03;;;1.00;;
41861;SDS011;27537;57.134;-2.136;2023-07-30T13:01:02;6.40;;;1.20;;
41861;SDS011;27537;57.134;-2.136;2023-07-30T13:03:29;4.20;;;1.08;;
41861;SDS011;27537;57.134;-2.136;2023-07-30T13:05:57;7.10;;;1.50;;
41861;SDS011;27537;57.134;-2.136;2023-07-30T13:08:24;5.60;;;1.20;;
41861;SDS011;27537;57.134;-2.136;2023-07-30T13:10:50;6.35;;;1.48;;
41861;SDS011;27537;57.134;-2.136;2023-07-30T13:13:17;3.58;;;1.10;;
41861;SDS011;27537;57.134;-2.136;2023-07-30T13:15:44;5.35;;;1.15;;
41861;SDS011;27537;57.134;-2.136;2023-07-30T13:18:10;8.23;;;1.80;;
41861;SDS011;27537;57.134;-2.136;2023-07-30T13:20:37;5.05;;;1.42;;
41861;SDS011;27537;57.134;-2.136;2023-07-30T13:23:04;8.77;;;1.73;;
41861;SDS011;27537;57.134;-2.136;2023-07-30T13:25:30;7.65;;;1.63;;
41861;SDS011;27537;57.134;-2.136;2023-07-30T13:27:57;4.97;;;1.20;;
41861;SDS011;27537;57.134;-2.136;2023-07-30T13:30:24;7.15;;;1.75;;
41861;SDS011;27537;57.134;-2.136;2023-07-30T13:32:51;7.97;;;1.63;;
41861;SDS011;27537;57.134;-2.136;2023-07-30T13:35:18;8.38;;;1.75;;
41861;SDS011;27537;57.134;-2.136;2023-07-30T13:37:44;7.97;;;1.88;;
41861;SDS011;27537;57.134;-2.136;2023-07-30T13:40:11;6.43;;;1.20;;
41861;SDS011;27537;57.134;-2.136;2023-07-30T13:42:38;6.70;;;1.40;;
41861;SDS011;27537;57.134;-2.136;2023-07-30T13:45:05;6.65;;;1.63;;
41861;SDS011;27537;57.134;-2.136;2023-07-30T13:47:32;5.45;;;1.30;;
41861;SDS011;27537;57.134;-2.136;2023-07-30T13:49:59;7.10;;;1.50;;
41861;SDS011;27537;57.134;-2.136;2023-07-30T13:52:25;5.88;;;1.60;;
41861;SDS011;27537;57.134;-2.136;2023-07-30T13:54:52;4.68;;;1.40;;
41861;SDS011;27537;57.134;-2.136;2023-07-30T13:57:22;7.93;;;1.58;;
41861;SDS011;27537;57.134;-2.136;2023-07-30T13:59:50;6.30;;;1.50;;
41861;SDS011;27537;57.134;-2.136;2023-07-30T14:02:18;5.45;;;1.40;;
41861;SDS011;27537;57.134;-2.136;2023-07-30T14:04:45;7.90;;;1.83;;
41861;SDS011;27537;57.134;-2.136;2023-07-30T14:07:11;5.60;;;1.50;;
41861;SDS011;27537;57.134;-2.136;2023-07-30T14:09:38;7.03;;;1.92;;
41861;SDS011;27537;57.134;-2.136;2023-07-30T14:12:05;6.53;;;1.80;;
41861;SDS011;27537;57.134;-2.136;2023-07-30T14:14:32;8.65;;;2.00;;
41861;SDS011;27537;57.134;-2.136;2023-07-30T14:16:59;8.60;;;1.88;;
41861;SDS011;27537;57.134;-2.136;2023-07-30T14:19:27;5.68;;;1.40;;
41861;SDS011;27537;57.134;-2.136;2023-07-30T14:21:55;5.18;;;1.40;;
41861;SDS011;27537;57.134;-2.136;2023-07-30T14:24:21;6.63;;;1.38;;
41861;SDS011;27537;57.134;-2.136;2023-07-30T14:26:49;5.60;;;1.40;;
41861;SDS011;27537;57.134;-2.136;2023-07-30T14:29:16;8.88;;;1.77;;
41861;SDS011;27537;57.134;-2.136;2023-07-30T14:31:43;5.88;;;1.13;;
41861;SDS011;27537;57.134;-2.136;2023-07-30T14:34:10;8.18;;;1.85;;
41861;SDS011;27537;57.134;-2.136;2023-07-30T14:36:37;5.72;;;1.27;;
41861;SDS011;27537;57.134;-2.136;2023-07-30T14:39:03;5.63;;;1.83;;
41861;SDS011;27537;57.134;-2.136;2023-07-30T14:41:30;6.28;;;1.70;;
41861;SDS011;27537;57.134;-2.136;2023-07-30T14:43:56;5.43;;;1.40;;
41861;SDS011;27537;57.134;-2.136;2023-07-30T14:46:23;6.93;;;1.50;;
41861;SDS011;27537;57.134;-2.136;2023-07-30T14:48:50;5.90;;;1.30;;
41861;SDS011;27537;57.134;-2.136;2023-07-30T14:51:17;5.93;;;1.30;;
41861;SDS011;27537;57.134;-2.136;2023-07-30T14:53:44;7.55;;;1.58;;